Time,TemperatureF,DewpointF,PressureIn,WindDirection,WindDirectionDegrees,WindSpeedMPH,WindSpeedGustMPH,Humidity,HourlyPrecipIn,Conditions,Clouds,dailyrainin,SoftwareType,DateUTC
2013-03-21 00:14:00,67.7,36.0,29.91,SSW,211,0.0,11.0,31,0.00,,,0.00,weatherlink.com 1.10,2013-03-21 07:14:00,
2013-03-21 00:29:00,67.4,36.0,29.91,SW,233,4.0,10.0,32,0.00,,,0.00,weatherlink.com 1.10,2013-03-21 07:29:00,
2013-03-21 00:44:00,67.1,36.0,29.91,West,270,3.0,8.0,32,0.00,,,0.00,weatherlink.com 1.10,2013-03-21 07:44:00,
2013-03-21 00:59:00,67.0,36.0,29.91,WSW,251,4.0,9.0,32,0.00,,,0.00,weatherlink.com 1.10,2013-03-21 07:59:00,
2013-03-21 01:14:00,66.7,36.0,29.91,West,264,3.0,7.0,32,0.00,,,0.00,weatherlink.com 1.10,2013-03-21 08:14:00,
2013-03-21 01:29:00,66.7,35.0,29.91,West,267,5.0,9.0,31,0.00,,,0.00,weatherlink.com 1.10,2013-03-21 08:29:00,
2013-03-21 01:44:00,66.5,35.0,29.91,WSW,255,4.0,8.0,31,0.00,,,0.00,weatherlink.com 1.10,2013-03-21 08:44:00,
2013-03-21 01:59:00,66.5,35.0,29.91,WSW,254,2.0,11.0,31,0.00,,,0.00,weatherlink.com 1.10,2013-03-21 08:59:00,
2013-03-21 02:14:00,66.0,35.0,29.92,WSW,240,2.0,8.0,32,0.00,,,0.00,weatherlink.com 1.10,2013-03-21 09:14:00,
2013-03-21 02:29:00,65.4,35.0,29.92,WSW,252,2.0,6.0,33,0.00,,,0.00,weatherlink.com 1.10,2013-03-21 09:29:00,
2013-03-21 02:44:00,64.9,35.0,29.92,SW,219,0.0,5.0,33,0.00,,,0.00,weatherlink.com 1.10,2013-03-21 09:44:00,
2013-03-21 02:59:00,63.3,36.0,29.92,SSE,161,0.0,0.0,36,0.00,,,0.00,weatherlink.com 1.10,2013-03-21 09:59:00,
2013-03-21 03:14:00,61.5,35.0,29.91,SSE,161,0.0,1.0,38,0.00,,,0.00,weatherlink.com 1.10,2013-03-21 10:14:00,
2013-03-21 03:29:00,59.6,35.0,29.92,SSE,161,0.0,1.0,40,0.00,,,0.00,weatherlink.com 1.10,2013-03-21 10:29:00,
2013-03-21 03:44:00,58.6,36.0,29.91,SSE,161,0.0,1.0,43,0.00,,,0.00,weatherlink.com 1.10,2013-03-21 10:44:00,
2013-03-21 03:59:00,58.2,36.0,29.91,SSE,161,0.0,0.0,43,0.00,,,0.00,weatherlink.com 1.10,2013-03-21 10:59:00,
2013-03-21 04:14:00,57.7,35.0,29.91,SSE,161,0.0,1.0,43,0.00,,,0.00,weatherlink.com 1.10,2013-03-21 11:14:00,
2013-03-21 04:29:00,56.4,36.0,29.92,SSE,161,0.0,0.0,46,0.00,,,0.00,weatherlink.com 1.10,2013-03-21 11:29:00,
2013-03-21 04:45:00,55.7,36.0,29.92,SSE,161,0.0,0.0,47,0.00,,,0.00,weatherlink.com 1.10,2013-03-21 11:45:00,
2013-03-21 05:00:00,55.7,36.0,29.93,SSE,161,0.0,2.0,47,0.00,,,0.00,weatherlink.com 1.10,2013-03-21 12:00:00,
2013-03-21 05:15:00,55.8,36.0,29.93,SSE,165,0.0,1.0,47,0.00,,,0.00,weatherlink.com 1.10,2013-03-21 12:15:00,
2013-03-21 05:30:00,55.2,36.0,29.93,SSE,165,0.0,0.0,48,0.00,,,0.00,weatherlink.com 1.10,2013-03-21 12:30:00,
2013-03-21 05:45:00,55.4,35.0,29.93,SSE,165,0.0,1.0,47,0.00,,,0.00,weatherlink.com 1.10,2013-03-21 12:45:00,
2013-03-21 06:00:00,54.9,35.0,29.94,SSE,165,0.0,1.0,48,0.00,,,0.00,weatherlink.com 1.10,2013-03-21 13:00:00,
2013-03-21 06:15:00,56.2,35.0,29.94,WSW,237,3.0,3.0,46,0.00,,,0.00,weatherlink.com 1.10,2013-03-21 13:15:00,
2013-03-21 06:30:00,57.0,36.0,29.94,SW,227,0.0,3.0,45,0.00,,,0.00,weatherlink.com 1.10,2013-03-21 13:30:00,
2013-03-21 06:45:00,55.9,36.0,29.95,SSW,212,0.0,1.0,47,0.00,,,0.00,weatherlink.com 1.10,2013-03-21 13:45:00,
2013-03-21 07:00:00,54.8,35.0,29.96,SW,220,0.0,1.0,48,0.00,,,0.00,weatherlink.com 1.10,2013-03-21 14:00:00,
2013-03-21 07:15:00,55.4,36.0,29.96,NW,323,0.0,2.0,48,0.00,,,0.00,weatherlink.com 1.10,2013-03-21 14:15:00,
2013-03-21 07:30:00,56.7,36.0,29.97,NW,323,0.0,0.0,47,0.00,,,0.00,weatherlink.com 1.10,2013-03-21 14:30:00,
2013-03-21 07:45:00,58.2,37.0,29.97,NW,317,0.0,1.0,46,0.00,,,0.00,weatherlink.com 1.10,2013-03-21 14:45:00,
2013-03-21 08:00:00,60.4,37.0,29.97,SW,214,0.0,2.0,42,0.00,,,0.00,weatherlink.com 1.10,2013-03-21 15:00:00,
2013-03-21 08:15:00,61.9,36.0,29.97,SSW,205,0.0,4.0,39,0.00,,,0.00,weatherlink.com 1.10,2013-03-21 15:15:00,
2013-03-21 08:30:00,64.0,37.0,29.98,SW,218,0.0,5.0,37,0.00,,,0.00,weatherlink.com 1.10,2013-03-21 15:30:00,
2013-03-21 08:45:00,67.0,36.0,29.98,West,261,4.0,8.0,32,0.00,,,0.00,weatherlink.com 1.10,2013-03-21 15:45:00,
2013-03-21 09:00:00,68.2,34.0,29.98,North,5,1.0,9.0,28,0.00,,,0.00,weatherlink.com 1.10,2013-03-21 16:00:00,
2013-03-21 09:15:00,70.3,34.0,29.99,North,360,0.0,7.0,26,0.00,,,0.00,weatherlink.com 1.10,2013-03-21 16:15:00,
2013-03-21 09:30:00,71.5,26.0,29.99,NNE,16,3.0,16.0,18,0.00,,,0.00,weatherlink.com 1.10,2013-03-21 16:30:00,
2013-03-21 09:45:00,72.9,23.0,29.99,NW,304,9.0,17.0,15,0.00,,,0.00,weatherlink.com 1.10,2013-03-21 16:45:00,
2013-03-21 10:00:00,73.6,18.0,29.99,NNW,328,13.0,16.0,12,0.00,,,0.00,weatherlink.com 1.10,2013-03-21 17:00:00,
2013-03-21 10:15:00,74.1,16.0,29.98,North,5,16.0,18.0,11,0.00,,,0.00,weatherlink.com 1.10,2013-03-21 17:15:00,
2013-03-21 10:30:00,74.8,15.0,29.99,NNE,12,6.0,20.0,10,0.00,,,0.00,weatherlink.com 1.10,2013-03-21 17:30:00,
2013-03-21 10:45:00,75.9,13.0,29.99,ENE,63,9.0,16.0,9,0.00,,,0.00,weatherlink.com 1.10,2013-03-21 17:45:00,
2013-03-21 11:00:00,76.9,14.0,29.99,North,11,10.0,17.0,9,0.00,,,0.00,weatherlink.com 1.10,2013-03-21 18:00:00,
2013-03-21 11:15:00,76.6,14.0,29.99,NNE,16,5.0,15.0,9,0.00,,,0.00,weatherlink.com 1.10,2013-03-21 18:15:00,
2013-03-21 11:30:00,77.2,16.0,29.99,WNW,293,8.0,16.0,10,0.00,,,0.00,weatherlink.com 1.10,2013-03-21 18:30:00,
2013-03-21 11:45:00,77.4,14.0,29.99,NNW,342,3.0,18.0,9,0.00,,,0.00,weatherlink.com 1.10,2013-03-21 18:45:00,
2013-03-21 12:00:00,77.8,14.0,29.98,NNW,328,11.0,16.0,9,0.00,,,0.00,weatherlink.com 1.10,2013-03-21 19:00:00,
2013-03-21 12:15:00,77.6,14.0,29.98,NNE,21,6.0,17.0,9,0.00,,,0.00,weatherlink.com 1.10,2013-03-21 19:15:00,
2013-03-21 12:30:00,78.2,12.0,29.97,NE,40,10.0,15.0,8,0.00,,,0.00,weatherlink.com 1.10,2013-03-21 19:30:00,
2013-03-21 12:45:00,79.0,13.0,29.97,NNW,327,5.0,16.0,8,0.00,,,0.00,weatherlink.com 1.10,2013-03-21 19:45:00,
2013-03-21 13:01:00,79.5,7.0,29.96,NW,319,7.0,16.0,6,0.00,,,0.00,weatherlink.com 1.10,2013-03-21 20:01:00,
2013-03-21 13:16:00,79.0,6.0,29.95,NNW,348,5.0,19.0,6,0.00,,,0.00,weatherlink.com 1.10,2013-03-21 20:16:00,
2013-03-21 13:31:00,79.4,3.0,29.95,NNE,25,6.0,16.0,5,0.00,,,0.00,weatherlink.com 1.10,2013-03-21 20:31:00,
2013-03-21 13:46:00,80.2,7.0,29.94,North,9,5.0,14.0,6,0.00,,,0.00,weatherlink.com 1.10,2013-03-21 20:46:00,
2013-03-21 14:01:00,80.7,11.0,29.93,NW,324,8.0,14.0,7,0.00,,,0.00,weatherlink.com 1.10,2013-03-21 21:01:00,
2013-03-21 14:16:00,80.7,14.0,29.92,NNW,332,3.0,15.0,8,0.00,,,0.00,weatherlink.com 1.10,2013-03-21 21:16:00,
2013-03-21 15:01:00,81.5,8.0,29.90,NW,325,6.0,11.0,6,0.00,,,0.00,weatherlink.com 1.10,2013-03-21 22:01:00,
2013-03-21 15:16:00,81.6,15.0,29.89,NNE,24,2.0,11.0,8,0.00,,,0.00,weatherlink.com 1.10,2013-03-21 22:16:00,
2013-03-21 15:31:00,81.7,-1.0,29.88,North,9,10.0,11.0,4,0.00,,,0.00,weatherlink.com 1.10,2013-03-21 22:31:00,
2013-03-21 15:46:00,82.1,12.0,29.88,NNW,331,5.0,9.0,7,0.00,,,0.00,weatherlink.com 1.10,2013-03-21 22:46:00,
2013-03-21 16:01:00,81.6,8.0,29.87,NNE,15,6.0,11.0,6,0.00,,,0.00,weatherlink.com 1.10,2013-03-21 23:01:00,
2013-03-21 16:16:00,81.5,4.0,29.87,NNE,24,4.0,10.0,5,0.00,,,0.00,weatherlink.com 1.10,2013-03-21 23:16:00,
2013-03-21 16:31:00,81.2,4.0,29.86,NNE,16,3.0,11.0,5,0.00,,,0.00,weatherlink.com 1.10,2013-03-21 23:31:00,
2013-03-21 16:46:00,81.2,8.0,29.86,NNW,338,9.0,9.0,6,0.00,,,0.00,weatherlink.com 1.10,2013-03-21 23:46:00,
2013-03-21 17:02:00,80.8,8.0,29.85,NNE,19,4.0,9.0,6,0.00,,,0.00,weatherlink.com 1.10,2013-03-22 00:02:00,
2013-03-21 17:17:00,79.6,3.0,29.85,North,11,5.0,8.0,5,0.00,,,0.00,weatherlink.com 1.10,2013-03-22 00:17:00,
2013-03-21 17:32:00,78.3,9.0,29.85,North,355,1.0,6.0,7,0.00,,,0.00,weatherlink.com 1.10,2013-03-22 00:32:00,
2013-03-21 17:47:00,77.9,5.0,29.85,North,10,5.0,7.0,6,0.00,,,0.00,weatherlink.com 1.10,2013-03-22 00:47:00,
2013-03-21 18:02:00,77.5,5.0,29.84,North,360,3.0,6.0,6,0.00,,,0.00,weatherlink.com 1.10,2013-03-22 01:02:00,
2013-03-21 18:17:00,77.0,5.0,29.84,NNW,344,0.0,4.0,6,0.00,,,0.00,weatherlink.com 1.10,2013-03-22 01:17:00,
2013-03-21 18:32:00,76.4,0.0,29.84,NW,315,2.0,7.0,5,0.00,,,0.00,weatherlink.com 1.10,2013-03-22 01:32:00,
2013-03-21 18:47:00,75.5,10.0,29.84,North,5,3.0,5.0,8,0.00,,,0.00,weatherlink.com 1.10,2013-03-22 01:47:00,
2013-03-21 19:02:00,74.2,16.0,29.84,NE,40,0.0,1.0,11,0.00,,,0.00,weatherlink.com 1.10,2013-03-22 02:02:00,
2013-03-21 19:17:00,73.3,18.0,29.84,ENE,71,0.0,2.0,12,0.00,,,0.00,weatherlink.com 1.10,2013-03-22 02:17:00,
2013-03-21 19:32:00,72.0,18.0,29.84,ENE,76,0.0,3.0,13,0.00,,,0.00,weatherlink.com 1.10,2013-03-22 02:32:00,
2013-03-21 19:47:00,71.9,18.0,29.84,East,96,0.0,3.0,13,0.00,,,0.00,weatherlink.com 1.10,2013-03-22 02:47:00,
2013-03-21 20:02:00,71.2,19.0,29.84,East,99,0.0,2.0,14,0.00,,,0.00,weatherlink.com 1.10,2013-03-22 03:02:00,
2013-03-21 20:18:00,69.9,20.0,29.85,East,99,0.0,1.0,15,0.00,,,0.00,weatherlink.com 1.10,2013-03-22 03:18:00,
2013-03-21 20:33:00,68.3,19.0,29.85,East,99,0.0,0.0,15,0.00,,,0.00,weatherlink.com 1.10,2013-03-22 03:33:00,
2013-03-21 20:48:00,66.1,20.0,29.85,East,99,0.0,0.0,17,0.00,,,0.00,weatherlink.com 1.10,2013-03-22 03:48:00,
2013-03-21 21:03:00,65.1,20.0,29.85,East,99,0.0,0.0,18,0.00,,,0.00,weatherlink.com 1.10,2013-03-22 04:03:00,
2013-03-21 21:18:00,64.6,20.0,29.85,East,99,0.0,1.0,18,0.00,,,0.00,weatherlink.com 1.10,2013-03-22 04:18:00,
2013-03-21 21:33:00,63.8,21.0,29.86,East,99,0.0,0.0,19,0.00,,,0.00,weatherlink.com 1.10,2013-03-22 04:33:00,
2013-03-21 21:48:00,63.0,21.0,29.86,East,99,0.0,1.0,20,0.00,,,0.00,weatherlink.com 1.10,2013-03-22 04:48:00,
2013-03-21 22:03:00,62.6,21.0,29.85,East,99,1.0,1.0,20,0.00,,,0.00,weatherlink.com 1.10,2013-03-22 05:03:00,
2013-03-21 22:18:00,63.4,25.0,29.86,WSW,246,1.0,4.0,23,0.00,,,0.00,weatherlink.com 1.10,2013-03-22 05:18:00,
2013-03-21 22:33:00,62.9,22.0,29.87,WSW,251,1.0,1.0,21,0.00,,,0.00,weatherlink.com 1.10,2013-03-22 05:33:00,
2013-03-21 22:48:00,62.5,20.0,29.86,WSW,254,1.0,3.0,19,0.00,,,0.00,weatherlink.com 1.10,2013-03-22 05:48:00,
2013-03-21 23:03:00,62.1,20.0,29.87,WSW,242,0.0,4.0,20,0.00,,,0.00,weatherlink.com 1.10,2013-03-22 06:03:00,
2013-03-21 23:18:00,62.8,18.0,29.86,West,265,3.0,6.0,18,0.00,,,0.00,weatherlink.com 1.10,2013-03-22 06:18:00,
2013-03-21 23:33:00,62.7,18.0,29.86,WSW,244,2.0,8.0,18,0.00,,,0.00,weatherlink.com 1.10,2013-03-22 06:33:00,
2013-03-21 23:49:00,62.5,18.0,29.86,WSW,258,3.0,5.0,18,0.00,,,0.00,weatherlink.com 1.10,2013-03-22 06:49:00,